createdAt,value
2023-01-28T00:02:24.028Z,3.12
2023-01-28T00:07:27.089Z,3.25
2023-01-28T00:12:30.089Z,3.25
2023-01-28T00:17:32.999Z,3.21
2023-01-28T00:22:36.110Z,3.11
2023-01-28T00:27:39.214Z,2.87
2023-01-28T00:32:43.549Z,2.99
2023-01-28T00:37:47.695Z,3.13
2023-01-28T00:42:50.793Z,3.00
2023-01-28T00:47:54.417Z,2.61
2023-01-28T00:52:57.423Z,2.65
2023-01-28T00:58:00.329Z,2.42
2023-01-28T01:03:03.530Z,2.26
2023-01-28T01:08:06.640Z,2.23
2023-01-28T01:13:10.362Z,2.28
2023-01-28T01:18:13.371Z,2.45
2023-01-28T01:23:16.480Z,2.45
2023-01-28T01:28:20.974Z,2.54
2023-01-28T01:33:23.924Z,2.56
2023-01-28T01:38:28.273Z,2.63
2023-01-28T01:43:56.255Z,2.77
2023-01-28T01:49:09.097Z,2.89
2023-01-28T01:54:12.511Z,2.75
2023-01-28T01:59:22.477Z,2.43
2023-01-28T02:04:35.009Z,2.24
2023-01-28T02:09:39.178Z,2.21
2023-01-28T02:14:47.031Z,2.38
2023-01-28T02:20:01.437Z,2.55
2023-01-28T02:25:34.656Z,2.56
2023-01-28T02:30:43.334Z,2.65
2023-01-28T02:35:54.242Z,2.63
2023-01-28T02:41:10.086Z,2.84
2023-01-28T02:46:41.149Z,3.05
2023-01-28T02:52:14.820Z,3.27
2023-01-28T02:57:36.623Z,3.34
2023-01-28T03:02:51.118Z,3.43
2023-01-28T03:07:54.887Z,3.55
2023-01-28T03:13:18.220Z,3.63
2023-01-28T03:18:49.481Z,3.67
2023-01-28T03:24:38.870Z,3.54
2023-01-28T03:30:02.972Z,3.51
2023-01-28T03:35:28.506Z,3.34
2023-01-28T03:40:32.237Z,3.22
2023-01-28T03:45:35.261Z,3.10
2023-01-28T03:50:38.446Z,2.99
2023-01-28T03:55:46.474Z,3.07
2023-01-28T04:00:49.482Z,3.22
2023-01-28T04:06:04.948Z,3.17
2023-01-28T04:11:16.690Z,2.94
2023-01-28T04:16:20.658Z,3.05
2023-01-28T04:21:23.826Z,3.21
2023-01-28T04:26:26.933Z,3.29
2023-01-28T04:31:30.260Z,3.44
2023-01-28T04:36:33.357Z,3.40
2023-01-28T04:41:36.464Z,3.18
2023-01-28T04:46:39.391Z,3.07
2023-01-28T04:51:42.375Z,3.05
2023-01-28T04:56:45.389Z,3.02
2023-01-28T05:01:48.318Z,3.02
2023-01-28T05:06:51.395Z,2.94
2023-01-28T05:11:54.401Z,2.75
2023-01-28T05:16:57.311Z,2.77
2023-01-28T05:22:00.209Z,2.64
2023-01-28T05:27:03.423Z,2.51
2023-01-28T05:32:06.605Z,2.48
2023-01-28T05:37:09.691Z,2.31
2023-01-28T05:42:12.750Z,2.07
2023-01-28T05:47:15.859Z,2.00
2023-01-28T05:52:18.766Z,2.08
2023-01-28T05:57:21.784Z,2.24
2023-01-28T06:02:24.822Z,2.32
2023-01-28T06:07:27.983Z,2.26
2023-01-28T06:12:31.093Z,2.09
2023-01-28T06:17:33.994Z,2.15
2023-01-28T06:22:37.104Z,2.23
2023-01-28T06:27:41.030Z,2.26
2023-01-28T06:32:44.826Z,2.40
2023-01-28T06:37:47.760Z,2.50
2023-01-28T06:42:50.665Z,2.54
2023-01-28T06:47:53.772Z,2.58
2023-01-28T06:52:56.986Z,2.68
2023-01-28T06:58:00.118Z,2.83
2023-01-28T07:03:03.484Z,2.91
2023-01-28T07:08:06.821Z,2.79
2023-01-28T07:13:10.978Z,2.76
2023-01-28T07:18:13.963Z,2.56
2023-01-28T07:23:17.074Z,2.45
2023-01-28T07:28:21.805Z,1.48
2023-01-28T07:33:25.244Z,3.45
2023-01-28T07:38:28.343Z,2.24
2023-01-28T07:43:32.077Z,1.74
2023-01-28T07:48:36.208Z,2.31
2023-01-28T07:53:39.409Z,2.83
2023-01-28T07:58:42.427Z,3.05
2023-01-28T08:03:45.447Z,3.07
2023-01-28T08:08:48.947Z,2.43
2023-01-28T08:13:51.950Z,2.51
2023-01-28T08:18:55.469Z,2.82
2023-01-28T08:23:58.504Z,2.90
2023-01-28T08:29:01.581Z,2.09
2023-01-28T08:34:04.586Z,2.84
2023-01-28T08:39:07.592Z,2.94
2023-01-28T08:44:10.615Z,1.97
2023-01-28T08:49:13.607Z,1.47
2023-01-28T08:54:16.713Z,3.21
2023-01-28T08:59:19.719Z,3.69
2023-01-28T09:04:22.736Z,2.51
2023-01-28T09:09:25.734Z,2.08
2023-01-28T09:14:28.744Z,3.53
2023-01-28T09:19:31.958Z,2.93
2023-01-28T09:24:36.720Z,2.27
2023-01-28T09:29:40.934Z,3.09
2023-01-28T09:34:44.744Z,3.98
2023-01-28T09:39:48.485Z,3.00
2023-01-28T09:45:04.203Z,2.61
2023-01-28T09:50:16.429Z,3.56
2023-01-28T09:55:25.059Z,3.27
2023-01-28T10:01:02.827Z,4.71
2023-01-28T10:06:08.647Z,6.57
2023-01-28T10:11:17.584Z,5.56
2023-01-28T10:16:46.608Z,4.16
2023-01-28T10:22:19.002Z,3.55
2023-01-28T10:27:24.234Z,3.93
2023-01-28T10:32:36.519Z,3.92
2023-01-28T10:37:40.776Z,4.07
2023-01-28T10:42:45.035Z,3.21
2023-01-28T10:48:00.244Z,3.29
2023-01-28T10:53:06.639Z,4.00
2023-01-28T10:58:22.762Z,3.60
2023-01-28T11:03:30.931Z,3.79
2023-01-28T11:08:44.539Z,3.69
2023-01-28T11:13:52.105Z,2.76
2023-01-28T11:19:04.369Z,3.13
2023-01-28T11:24:16.598Z,3.84
2023-01-28T11:29:27.888Z,4.35
2023-01-28T11:34:34.483Z,4.10
2023-01-28T11:39:37.492Z,3.39
2023-01-28T11:44:41.104Z,3.89
2023-01-28T11:49:47.116Z,4.66
2023-01-28T11:54:59.099Z,3.73
2023-01-28T12:00:16.240Z,3.22
2023-01-28T12:05:26.205Z,4.10
2023-01-28T12:10:49.496Z,4.09
2023-01-28T12:16:13.091Z,3.38
2023-01-28T12:21:35.436Z,4.20
2023-01-28T12:27:09.777Z,3.90
2023-01-28T12:32:15.484Z,2.81
2023-01-28T12:38:01.469Z,3.47
2023-01-28T12:43:16.237Z,4.39
2023-01-28T12:48:34.620Z,3.19
2023-01-28T12:54:01.270Z,2.93
2023-01-28T12:59:20.293Z,3.56
2023-01-28T13:04:39.857Z,2.91
2023-01-28T13:10:08.367Z,3.09
2023-01-28T13:15:15.720Z,3.29
2023-01-28T13:20:46.626Z,2.43
2023-01-28T13:25:53.218Z,2.46
2023-01-28T13:31:09.763Z,3.18
2023-01-28T13:36:28.335Z,3.55
2023-01-28T13:41:43.344Z,2.77
2023-01-28T13:46:46.622Z,1.87
2023-01-28T13:52:25.149Z,2.67
2023-01-28T13:57:34.101Z,2.47
2023-01-28T14:02:58.819Z,1.82
2023-01-28T14:08:07.769Z,2.36
2023-01-28T14:14:12.827Z,2.20
2023-01-28T14:19:16.234Z,1.48
2023-01-28T14:24:19.954Z,2.08
2023-01-28T14:29:53.375Z,2.17
2023-01-28T14:35:00.385Z,1.98
2023-01-28T14:40:12.636Z,1.88
2023-01-28T14:45:30.761Z,2.02
2023-01-28T14:51:18.628Z,1.84
2023-01-28T14:56:42.412Z,0.75
2023-01-28T15:01:48.207Z,1.72
2023-01-28T15:06:51.393Z,3.22
2023-01-28T15:11:57.991Z,1.73
2023-01-28T15:17:02.118Z,0.74
2023-01-28T15:22:07.690Z,0.33
2023-01-28T15:27:24.040Z,1.15
2023-01-28T15:32:30.502Z,1.80
2023-01-28T15:37:33.512Z,2.13
2023-01-28T15:42:36.794Z,2.33
2023-01-28T15:47:39.947Z,1.31
2023-01-28T15:52:45.657Z,0.48
2023-01-28T15:57:48.800Z,1.15
2023-01-28T16:02:55.681Z,1.66
2023-01-28T16:08:04.047Z,2.01
2023-01-28T16:13:20.056Z,1.38
2023-01-28T16:18:35.564Z,0.33
2023-01-28T16:23:39.762Z,-0.31
2023-01-28T16:28:43.028Z,-0.69
2023-01-28T16:33:46.611Z,1.05
2023-01-28T16:38:49.862Z,4.63
2023-01-28T16:43:53.682Z,2.63
2023-01-28T16:48:56.861Z,1.18
2023-01-28T16:54:00.111Z,0.42
2023-01-28T16:59:03.400Z,-0.08
2023-01-28T17:04:11.914Z,-0.26
2023-01-28T17:09:15.890Z,1.38
2023-01-28T17:14:18.896Z,4.53
2023-01-28T17:19:21.969Z,3.55
2023-01-28T17:24:25.200Z,1.82
2023-01-28T17:29:28.505Z,0.89
2023-01-28T17:34:31.810Z,0.33
2023-01-28T17:39:34.816Z,1.30
2023-01-28T17:44:38.022Z,4.19
2023-01-28T17:49:41.133Z,5.73
2023-01-28T17:54:44.143Z,3.05
2023-01-28T17:59:47.407Z,1.45
2023-01-28T18:04:50.662Z,1.45
2023-01-28T18:09:55.272Z,5.49
2023-01-28T18:14:58.427Z,5.62
2023-01-28T18:20:01.831Z,3.03
2023-01-28T18:25:05.931Z,1.61
2023-01-28T18:30:10.096Z,0.73
2023-01-28T18:35:13.098Z,0.59
2023-01-28T18:40:16.105Z,4.25
2023-01-28T18:45:20.281Z,5.43
2023-01-28T18:50:24.272Z,2.87
2023-01-28T18:55:27.578Z,1.38
2023-01-28T19:00:30.447Z,2.22
2023-01-28T19:05:37.872Z,2.19
2023-01-28T19:10:41.109Z,0.84
2023-01-28T19:15:44.020Z,1.00
2023-01-28T19:20:47.760Z,1.47
2023-01-28T19:25:50.644Z,2.11
2023-01-28T19:30:53.771Z,5.06
2023-01-28T19:36:01.247Z,4.54
2023-01-28T19:41:05.836Z,2.24
2023-01-28T19:46:10.076Z,1.10
2023-01-28T19:51:14.884Z,1.59
2023-01-28T19:56:19.130Z,2.35
2023-01-28T20:01:27.243Z,2.90
2023-01-28T20:06:33.334Z,1.40
2023-01-28T20:11:36.336Z,0.97
2023-01-28T20:16:39.369Z,1.45
2023-01-28T20:21:42.363Z,2.22
2023-01-28T20:26:45.385Z,4.13
2023-01-28T20:32:01.190Z,3.11
2023-01-28T20:37:12.256Z,1.44
2023-01-28T20:42:15.577Z,3.69
2023-01-28T20:47:18.680Z,2.72
2023-01-28T20:52:21.593Z,1.26
2023-01-28T20:57:24.624Z,3.11
2023-01-28T21:02:27.660Z,3.33
2023-01-28T21:07:31.118Z,1.42
2023-01-28T21:12:34.811Z,1.11
2023-01-28T21:17:37.848Z,1.11
2023-01-28T21:22:40.748Z,0.90
2023-01-28T21:27:43.759Z,1.02
2023-01-28T21:32:46.762Z,0.74
2023-01-28T21:37:49.773Z,1.22
2023-01-28T21:42:55.849Z,1.55
2023-01-28T21:47:59.058Z,1.39
2023-01-28T21:53:02.289Z,1.41
2023-01-28T21:58:25.249Z,2.46
2023-01-28T22:03:31.528Z,3.36
2023-01-28T22:08:34.639Z,1.48
2023-01-28T22:13:38.157Z,2.35
2023-01-28T22:18:41.159Z,3.24
2023-01-28T22:23:44.172Z,1.58
2023-01-28T22:28:47.175Z,3.04
2023-01-28T22:33:50.091Z,2.81
2023-01-28T22:38:53.293Z,1.65
2023-01-28T22:43:56.296Z,2.91
2023-01-28T22:48:59.937Z,2.68
2023-01-28T22:54:04.155Z,1.76
2023-01-28T22:59:07.198Z,3.51
2023-01-28T23:04:10.264Z,2.62
2023-01-28T23:09:13.365Z,2.88
2023-01-28T23:14:35.129Z,3.56
2023-01-28T23:19:57.070Z,2.50
2023-01-28T23:25:00.290Z,1.14
2023-01-28T23:30:05.025Z,1.64
2023-01-28T23:35:09.216Z,4.63
2023-01-28T23:40:13.813Z,3.95
2023-01-28T23:45:17.694Z,2.25
2023-01-28T23:50:20.543Z,4.43
2023-01-28T23:55:23.439Z,5.29
